Updated18/09/2018 19:25 
 

GeoURL
free counters
Scottish Weather Network UK Weather Network Cumulus Top Weather Sites

Peebles Weather - Nearby METAR Reports

Raw Data, Raw Data Expanded

Ignore low humidity and Dew Point values. Something wrong with the sensor.
Daytime temperatures are in direct sunlight so may be higher than official air temperature values.
As with any other website, we log your IP address and browser type in the server logs for diagnostic reasons. Cookies are used to record visit time and gauges preferences. No personal information is stored or processed.

All times are in BST (UTC+1) unless specified.

2018/09/18 18:20 EGPH 181820Z 22008KT 9999 7000S -RA FEW019CB SCT030 16/12 Q0997
16.6°C 0.0 mm 0.0 mm 0.0 mm 6.7 mph 10.7 mph 993.9 hPa 84% X-Ray Solar Flare Level
Planetary K-Index
Planetary K-Index History
Station Warn Rain Snow Flood Wind Ltng Heat Cold Glob Moon Temp Rain 1h Rain Tue Rain 24h Wind 10m Gust Pressure Hum Proton Levels
Lost sensor contact!!! Wind
0.284 m Waxing Gibbous Comfortable F2-SE F: A: Kp:0 SSN:0

METAR Reports

 

EGPH - Edinburgh Airpor, United Kingdom
Distance from station: NNW 22mi, 36km
Updated: 18/09/2018 19:20
Light rain, Partly cloudy
Light rain, Partly cloudy
 Wind from SW
Wind: SW 9 mph , 15 km/h
Temperature: 16°C
Dew Point: 12°C
Humidity: 77%
Barometer: 997 hPa
Summary: Light rain
Clouds: Partly cloudy
Visibility: 6 miles , 10 km
Cloud details: Few Clouds 579 m
Partly cloudy 914 m
2018/09/18 18:20 EGPH 181820Z 22008KT 9999 7000S -RA FEW019CB SCT030 16/12 Q0997
EGOM - Spadeadam, United Kingdom
Distance from station: SSE 49mi, 79km
Updated: 18/09/2018 18:50
Partly cloudy
Partly cloudy
 Wind from SW
Wind: SW 18 mph , 30 km/h
Temperature: 15°C
Dew Point: 12°C
Humidity: 82%
Barometer: 1000 hPa
Clouds: Partly cloudy
Visibility: 6 miles , 10 km
Cloud details: Mostly cloudy 762 m
Partly cloudy 4877 m
2018/09/18 17:50 EGOM 181750Z AUTO 22016KT 9999 BKN025/// SCT160/// 15/12 Q1000
 
EGNC - Carlisle, United Kingdom
Distance from station: SSE 51mi, 82km
Updated: 18/09/2018 17:50
NOT Current
Nearby showers, Partly cloudy
Nearby showers, Partly cloudy
 Wind from WSW
Wind: WSW 21 mph , 33 km/h
Temperature: 16°C
Dew Point: 13°C
Humidity: 83%
Barometer: 1000 hPa
Summary: Nearby Showers
Clouds: Partly cloudy
Visibility: 6 miles , 10 km
Cloud details: Few Clouds 610 m
Partly cloudy 732 m
2018/09/18 16:50 EGNC 181650Z 24018KT 9999 9000S VCSH FEW020 SCT024 16/13 Q1000
EGPF - Glasgow Airport, United Kingdom
Distance from station: WNW 51mi, 82km
Updated: 18/09/2018 19:20
Thunderstorm
Thunderstorm
 Wind from SSW
Wind: SSW 10 mph , 17 km/h
Temperature: 16°C
Dew Point: 13°C
Humidity: 83%
Barometer: 997 hPa
Clouds: Thunderstorm
Visibility: 6 miles , 10 km
Cloud details: Partly cloudy 792 m
Mostly cloudy 945 m
2018/09/18 18:20 EGPF 181820Z AUTO 20009KT 9999 SCT026/// BKN031/// //////CB 16/13 Q0997
 
EGQL - Leuchars Raf, United Kingdom
Distance from station: NNE 53mi, 85km
Updated: 18/09/2018 18:50
Partly cloudy
Partly cloudy
 Wind from WSW
Wind: WSW 16 mph , 26 km/h
Temperature: 16°C
Dew Point: 12°C
Humidity: 77%
Barometer: 996 hPa
Clouds: Partly cloudy
Visibility: 6 miles , 10 km
Cloud details: Partly cloudy 1250 m
2018/09/18 17:50 EGQL 181750Z 24014KT 9999 SCT041 16/12 Q0996 BLU
EGPK - Prestwick(Civ/Na, United Kingdom
Distance from station: W 55mi, 89km
Updated: 18/09/2018 19:20
Light rain, Showers, Partly cloudy
Light rain, Showers, Partly cloudy
 Wind from S
Wind: S 15 mph , 24 km/h
Temperature: 16°C
Dew Point: 13°C
Humidity: 83%
Barometer: 997 hPa
Summary: Light rain, Showers
Clouds: Partly cloudy
Visibility: 6 miles , 10 km
Cloud details: Few Clouds 549 m
Partly cloudy 762 m
2018/09/18 18:20 EGPK 181820Z 19013KT 9999 7000S -SHRA FEW018CB SCT025 16/13 Q0997
 
EGPN - Dundee/Riverside, United Kingdom
Distance from station: N 56mi, 90km
Updated: 18/09/2018 19:20
Few Clouds
Few Clouds
 Wind from WSW
Wind: WSW 10 mph , 17 km/h
Temperature: 15°C
Dew Point: 13°C
Humidity: 88%
Barometer: 997 hPa
Clouds: Few Clouds
Visibility: 6 miles , 10 km
Cloud details: Few Clouds 457 m
2018/09/18 18:20 EGPN 181820Z 25009KT 200V270 9999 FEW015 15/13 Q0997
EGNT - Newcastle, United Kingdom
Distance from station: SE 72mi, 116km
Updated: 18/09/2018 19:20
Few Clouds
Few Clouds
 Wind from SW
Wind: SW 14 mph , 22 km/h
Temperature: 17°C
Dew Point: 12°C
Humidity: 73%
Barometer: 1001 hPa
Clouds: Few Clouds
Visibility: 6 miles , 10 km
Cloud details: Few Clouds 975 m
2018/09/18 18:20 EGNT 181820Z 22012KT 180V250 9999 FEW032 17/12 Q1001
 
EGNV - Tees-Side, United Kingdom
Distance from station: SE 104mi, 168km
Updated: 18/09/2018 19:20
Partly cloudy
Partly cloudy
 Wind from SSW
Wind: SSW 20 mph , 31 km/h
Temperature: 18°C
Dew Point: 12°C
Humidity: 68%
Barometer: 1002 hPa
Clouds: Partly cloudy
Visibility: 6 miles , 10 km
Cloud details: Partly cloudy 1219 m
2018/09/18 18:20 EGNV 181820Z 21017KT 9999 SCT040 18/12 Q1002
EGPD - Aberdeen/Dyce, United Kingdom
Distance from station: NNE 114mi, 183km
Updated: 18/09/2018 19:20
Clear
Clear
 Wind from SSW
Wind: SSW 23 mph , 37 km/h, Gust: 36 mph , 57 km/h
Temperature: 16°C
Dew Point: 10°C
Humidity: 68%
Barometer: 995 hPa
Clouds: Clear
Visibility: 6 miles , 10 km
2018/09/18 18:20 EGPD 181820Z AUTO 21020G31KT 9999 NCD 16/10 Q0995
 
EGNS - Isle Of Man/Rona, United Kingdom
Distance from station: SSW 122mi, 197km
Updated: 18/09/2018 18:50
Light rain, Showers, Mostly cloudy
Light rain, Showers, Mostly cloudy
 Wind from SSW
Wind: SSW 30 mph , 48 km/h
Temperature: 16°C
Dew Point: 14°C
Humidity: 88%
Barometer: 1000 hPa
Summary: Light rain, Showers
Clouds: Mostly cloudy
Visibility: 5 miles , 8 km
Cloud details: Few Clouds 244 m
Mostly cloudy 1372 m
2018/09/18 17:50 EGNS 181750Z 21026KT 8000 -SHRA FEW008 BKN045 16/14 Q1000 BECMG 9999 NSW
EGAC - Belfast Harbour, United Kingdom
Distance from station: WSW 128mi, 206km
Updated: 18/09/2018 19:20
Clear
Clear
 Wind from SW
Wind: SW 17 mph , 28 km/h
Temperature: 16°C
Dew Point: 10°C
Humidity: 68%
Barometer: 998 hPa
Clouds: Clear
Visibility: 6 miles , 10 km
2018/09/18 18:20 EGAC 181820Z AUTO 22015KT 9999 NCD 16/10 Q0998
 
EGPE - Inverness/Dalcro, United Kingdom
Distance from station: NNW 134mi, 215km
Updated: 18/09/2018 19:20
Few Clouds
Few Clouds
 Wind from SW
Wind: SW 12 mph , 19 km/h
Temperature: 13°C
Dew Point: 11°C
Humidity: 88%
Barometer: 994 hPa
Clouds: Few Clouds
Visibility: 6 miles , 10 km
Cloud details: Few Clouds 671 m
2018/09/18 18:20 EGPE 181820Z 23010KT 9999 FEW022 13/11 Q0994
XHTML 1.1 | CSS